createdAt,value
2018-05-25T00:01:08.973Z,18.40
2018-05-25T00:03:36.192Z,18.40
2018-05-25T00:06:04.195Z,18.40
2018-05-25T00:08:31.445Z,18.40
2018-05-25T00:10:58.607Z,18.40
2018-05-25T00:13:25.854Z,18.40
2018-05-25T00:15:53.922Z,18.40
2018-05-25T00:18:21.117Z,18.40
2018-05-25T00:20:48.292Z,18.40
2018-05-25T00:23:16.296Z,18.40
2018-05-25T00:25:43.456Z,18.40
2018-05-25T00:28:10.700Z,18.40
2018-05-25T00:30:38.675Z,18.40
2018-05-25T00:33:05.840Z,18.40
2018-05-25T00:35:33.075Z,18.40
2018-05-25T00:38:00.243Z,18.40
2018-05-25T00:40:28.338Z,18.40
2018-05-25T00:42:55.553Z,18.30
2018-05-25T00:45:23.483Z,18.40
2018-05-25T00:47:51.408Z,18.40
2018-05-25T00:50:18.570Z,18.40
2018-05-25T00:52:46.684Z,18.30
2018-05-25T00:55:20.655Z,18.30
2018-05-25T00:57:47.882Z,18.30
2018-05-25T01:00:15.053Z,18.30
2018-05-25T01:02:43.129Z,18.30
2018-05-25T01:05:10.292Z,18.30
2018-05-25T01:07:37.455Z,18.30
2018-05-25T01:10:04.667Z,18.30
2018-05-25T01:12:31.913Z,18.30
2018-05-25T01:14:59.079Z,18.30
2018-05-25T01:17:26.318Z,18.30
2018-05-25T01:19:53.477Z,18.30
2018-05-25T01:22:21.445Z,18.30
2018-05-25T01:24:48.612Z,18.30
2018-05-25T01:27:15.832Z,18.30
2018-05-25T01:29:42.997Z,18.30
2018-05-25T01:32:10.164Z,18.30
2018-05-25T01:34:37.329Z,18.30
2018-05-25T01:37:04.488Z,18.30
2018-05-25T01:39:31.651Z,18.30
2018-05-25T01:41:59.587Z,18.30
2018-05-25T01:44:26.752Z,18.30
2018-05-25T01:46:53.915Z,18.30
2018-05-25T01:49:21.127Z,18.30
2018-05-25T01:51:48.382Z,18.30
2018-05-25T01:54:15.556Z,18.30
2018-05-25T01:56:42.727Z,18.20
2018-05-25T01:59:09.889Z,18.20
2018-05-25T02:01:37.820Z,18.30
2018-05-25T02:04:04.992Z,18.30
2018-05-25T02:06:32.152Z,18.30
2018-05-25T02:09:00.087Z,18.20
2018-05-25T02:11:27.252Z,18.20
2018-05-25T02:13:54.455Z,18.20
2018-05-25T02:16:21.628Z,18.30
2018-05-25T02:18:48.888Z,18.20
2018-05-25T02:21:16.047Z,18.20
2018-05-25T02:23:43.212Z,18.20
2018-05-25T02:26:10.442Z,18.20
2018-05-25T02:28:37.612Z,18.20
2018-05-25T02:31:04.780Z,18.20
2018-05-25T02:33:31.946Z,18.20
2018-05-25T02:35:59.875Z,18.20
2018-05-25T02:38:27.044Z,18.20
2018-05-25T02:40:54.217Z,18.20
2018-05-25T02:43:22.149Z,18.20
2018-05-25T02:45:49.320Z,18.20
2018-05-25T02:48:16.508Z,18.20
2018-05-25T02:50:44.437Z,18.20
2018-05-25T02:53:11.604Z,18.20
2018-05-25T02:55:38.764Z,18.20
2018-05-25T02:58:06.697Z,18.20
2018-05-25T03:00:33.855Z,18.20
2018-05-25T03:03:01.087Z,18.20
2018-05-25T03:05:28.363Z,18.10
2018-05-25T03:07:55.533Z,18.20
2018-05-25T03:10:22.744Z,18.20
2018-05-25T03:12:49.993Z,18.20
2018-05-25T03:15:17.784Z,18.20
2018-05-25T03:17:45.018Z,18.10
2018-05-25T03:20:12.306Z,18.20
2018-05-25T03:22:39.628Z,18.20
2018-05-25T03:25:06.881Z,18.20
2018-05-25T03:27:34.052Z,18.20
2018-05-25T03:30:01.984Z,18.10
2018-05-25T03:32:29.199Z,18.10
2018-05-25T03:34:57.132Z,18.10
2018-05-25T03:37:24.343Z,18.10
2018-05-25T03:39:51.513Z,18.10
2018-05-25T03:42:18.678Z,18.10
2018-05-25T03:44:45.845Z,18.10
2018-05-25T03:47:13.012Z,18.10
2018-05-25T03:49:40.177Z,18.10
2018-05-25T03:52:07.594Z,18.10
2018-05-25T03:54:34.765Z,18.10
2018-05-25T03:57:01.990Z,18.10
2018-05-25T03:59:34.904Z,18.10
2018-05-25T04:02:02.126Z,18.10
2018-05-25T04:04:30.692Z,18.10
2018-05-25T04:06:58.636Z,18.10
2018-05-25T04:09:25.870Z,18.10
2018-05-25T04:11:53.043Z,18.10
2018-05-25T04:14:20.214Z,18.10
2018-05-25T04:16:47.409Z,18.10
2018-05-25T04:19:14.612Z,18.10
2018-05-25T04:21:42.592Z,18.10
2018-05-25T04:24:10.528Z,18.10
2018-05-25T04:26:37.759Z,18.10
2018-05-25T04:29:05.016Z,18.10
2018-05-25T04:31:32.185Z,18.10
2018-05-25T04:33:59.416Z,18.10
2018-05-25T04:36:26.585Z,18.10
2018-05-25T04:38:53.925Z,18.10
2018-05-25T04:41:21.139Z,18.10
2018-05-25T04:43:49.076Z,18.10
2018-05-25T04:46:16.247Z,18.10
2018-05-25T04:48:44.222Z,18.10
2018-05-25T04:51:12.168Z,18.10
2018-05-25T04:53:39.379Z,18.10
2018-05-25T04:56:06.557Z,18.10
2018-05-25T04:58:33.829Z,18.10
2018-05-25T05:01:01.903Z,18.10
2018-05-25T05:03:29.152Z,18.10
2018-05-25T05:05:56.376Z,18.10
2018-05-25T05:08:23.594Z,18.10
2018-05-25T05:13:34.404Z,18.20
2018-05-25T05:16:01.687Z,18.20
2018-05-25T05:18:28.904Z,18.10
2018-05-25T05:20:56.066Z,18.10
2018-05-25T05:23:23.234Z,18.10
2018-05-25T05:25:50.436Z,18.10
2018-05-25T05:28:17.610Z,18.20
2018-05-25T05:30:44.777Z,18.20
2018-05-25T05:33:11.996Z,18.20
2018-05-25T05:35:39.980Z,18.20
2018-05-25T05:38:07.951Z,18.20
2018-05-25T05:40:35.884Z,18.20
2018-05-25T05:43:03.112Z,18.20
2018-05-25T05:45:30.321Z,18.20
2018-05-25T05:47:58.276Z,18.20
2018-05-25T05:50:25.561Z,18.20
2018-05-25T05:52:52.757Z,18.20
2018-05-25T05:55:20.031Z,18.20
2018-05-25T05:57:48.704Z,18.20
2018-05-25T06:00:15.876Z,18.20
2018-05-25T06:02:43.909Z,18.30
2018-05-25T06:05:11.169Z,18.30
2018-05-25T06:07:38.392Z,18.30
2018-05-25T06:10:05.595Z,18.30
2018-05-25T06:12:34.350Z,18.20
2018-05-25T06:15:01.603Z,18.20
2018-05-25T06:17:28.856Z,18.30
2018-05-25T06:19:57.050Z,18.30
2018-05-25T06:22:24.223Z,18.30
2018-05-25T06:24:51.384Z,18.30
2018-05-25T06:27:19.320Z,18.30
2018-05-25T06:29:46.487Z,18.30
2018-05-25T06:32:14.532Z,18.30
2018-05-25T06:34:41.807Z,18.30
2018-05-25T06:37:09.076Z,18.20
2018-05-25T06:39:36.320Z,18.20
2018-05-25T06:42:03.536Z,18.20
2018-05-25T06:44:30.708Z,18.20
2018-05-25T06:46:57.967Z,18.20
2018-05-25T06:49:25.302Z,18.20
2018-05-25T06:51:52.471Z,18.20
2018-05-25T06:54:19.637Z,18.20
2018-05-25T06:56:46.843Z,18.20
2018-05-25T06:59:14.009Z,18.20
2018-05-25T07:01:41.193Z,18.20
2018-05-25T07:04:08.356Z,18.20
2018-05-25T07:06:36.293Z,18.20
2018-05-25T07:09:03.571Z,18.20
2018-05-25T07:11:30.784Z,18.20
2018-05-25T07:13:57.972Z,18.20
2018-05-25T07:16:26.680Z,18.20
2018-05-25T07:18:54.629Z,18.20
2018-05-25T07:21:21.953Z,18.20
2018-05-25T07:23:49.156Z,18.20
2018-05-25T07:26:16.377Z,18.20
2018-05-25T07:28:43.690Z,18.20
2018-05-25T07:31:11.769Z,18.20
2018-05-25T07:33:38.977Z,18.20
2018-05-25T07:36:07.656Z,18.20
2018-05-25T07:38:34.909Z,18.20
2018-05-25T07:41:02.178Z,18.20
2018-05-25T07:43:29.499Z,18.20
2018-05-25T07:45:56.684Z,18.20
2018-05-25T07:48:25.268Z,18.20
2018-05-25T07:50:53.331Z,18.20
2018-05-25T07:53:20.649Z,18.20
2018-05-25T07:55:47.924Z,18.20
2018-05-25T07:58:15.978Z,18.20
2018-05-25T08:00:43.508Z,18.20
2018-05-25T08:03:10.692Z,18.20
2018-05-25T08:05:37.857Z,18.20
2018-05-25T08:08:05.084Z,18.20
2018-05-25T08:10:32.289Z,18.20
2018-05-25T08:12:59.452Z,18.20
2018-05-25T08:15:27.465Z,18.20
2018-05-25T08:17:54.720Z,18.20
2018-05-25T08:20:21.893Z,18.20
2018-05-25T08:22:49.101Z,18.20
2018-05-25T08:25:16.313Z,18.20
2018-05-25T08:27:43.532Z,18.20
2018-05-25T08:30:10.704Z,18.20
2018-05-25T08:32:37.920Z,18.20
2018-05-25T08:35:05.095Z,18.20
2018-05-25T08:37:32.272Z,18.20
2018-05-25T08:39:59.436Z,18.20
2018-05-25T08:42:26.600Z,18.20
2018-05-25T08:44:54.580Z,18.20
2018-05-25T08:47:21.750Z,18.20
2018-05-25T08:49:49.022Z,18.20
2018-05-25T08:52:16.645Z,18.30
2018-05-25T08:54:43.930Z,18.20
2018-05-25T08:57:11.185Z,18.20
2018-05-25T08:59:38.455Z,18.20
2018-05-25T09:02:05.619Z,18.20
2018-05-25T09:04:32.856Z,18.20
2018-05-25T09:07:00.299Z,18.20
2018-05-25T09:09:27.512Z,18.20
2018-05-25T09:11:55.484Z,18.20
2018-05-25T09:14:23.425Z,18.30
2018-05-25T09:16:50.673Z,18.30
2018-05-25T09:19:17.862Z,18.30
2018-05-25T09:21:45.870Z,18.50
2018-05-25T09:24:14.609Z,18.70
2018-05-25T09:26:42.549Z,18.80
2018-05-25T09:29:09.849Z,18.80
2018-05-25T09:31:37.056Z,18.90
2018-05-25T09:34:04.228Z,19.00
2018-05-25T09:36:31.395Z,19.10
2018-05-25T09:38:59.333Z,19.20
2018-05-25T09:41:26.550Z,19.20
2018-05-25T09:43:53.717Z,19.20
2018-05-25T09:46:20.929Z,19.30
2018-05-25T09:48:48.909Z,19.20
2018-05-25T09:51:16.296Z,19.20
2018-05-25T09:53:43.588Z,19.20
2018-05-25T09:56:10.796Z,19.20
2018-05-25T09:58:38.096Z,19.20
2018-05-25T10:01:05.266Z,19.20
2018-05-25T10:03:33.420Z,19.20
2018-05-25T10:06:00.594Z,19.10
2018-05-25T10:08:27.832Z,19.10
2018-05-25T10:10:54.996Z,19.10
2018-05-25T10:13:22.230Z,19.10
2018-05-25T10:15:49.400Z,19.10
2018-05-25T10:18:16.566Z,19.10
2018-05-25T10:20:44.508Z,19.00
2018-05-25T10:23:11.755Z,19.00
2018-05-25T10:25:38.924Z,19.00
2018-05-25T10:28:06.093Z,19.00
2018-05-25T10:30:33.260Z,19.00
2018-05-25T10:33:00.436Z,19.00
2018-05-25T10:35:27.610Z,19.00
2018-05-25T10:37:54.821Z,19.00
2018-05-25T10:40:22.757Z,19.00
2018-05-25T10:42:49.928Z,19.00
2018-05-25T10:45:17.105Z,19.00
2018-05-25T10:47:44.272Z,19.00
2018-05-25T10:50:11.442Z,19.00
2018-05-25T10:52:38.752Z,19.00
2018-05-25T10:55:05.924Z,19.00
2018-05-25T10:57:33.097Z,19.00
2018-05-25T11:00:00.277Z,19.00
2018-05-25T11:02:27.492Z,19.00
2018-05-25T11:04:54.657Z,18.90
2018-05-25T11:07:22.644Z,18.90
2018-05-25T11:09:50.631Z,18.90
2018-05-25T11:12:17.836Z,18.90
2018-05-25T11:14:45.047Z,18.90
2018-05-25T11:17:12.218Z,18.90
2018-05-25T11:19:39.473Z,19.00
2018-05-25T11:22:06.716Z,19.00
2018-05-25T11:24:33.893Z,19.00
2018-05-25T11:27:01.102Z,19.00
2018-05-25T11:29:28.272Z,19.00
2018-05-25T11:31:55.451Z,18.90
2018-05-25T11:34:22.616Z,18.90
2018-05-25T11:36:49.840Z,18.90
2018-05-25T11:39:17.013Z,18.90
2018-05-25T11:41:44.185Z,18.90
2018-05-25T11:44:12.120Z,18.90
2018-05-25T11:46:39.289Z,18.90
2018-05-25T11:49:06.452Z,18.90
2018-05-25T11:51:34.393Z,18.90
2018-05-25T11:54:01.600Z,18.90
2018-05-25T11:56:28.774Z,18.90
2018-05-25T11:58:55.951Z,18.90
2018-05-25T12:01:23.126Z,18.90
2018-05-25T12:03:53.981Z,18.80
2018-05-25T12:06:21.221Z,18.80
2018-05-25T12:08:49.153Z,18.80
2018-05-25T12:11:16.413Z,18.80
2018-05-25T12:13:43.577Z,18.80
2018-05-25T12:16:10.909Z,18.80
2018-05-25T12:18:38.153Z,18.80
2018-05-25T12:21:05.409Z,18.90
2018-05-25T12:23:32.575Z,18.90
2018-05-25T12:25:59.844Z,18.90
2018-05-25T12:28:27.016Z,18.90
2018-05-25T12:30:54.954Z,18.80
2018-05-25T12:33:22.124Z,18.80
2018-05-25T12:35:49.296Z,18.80
2018-05-25T12:38:17.285Z,18.80
2018-05-25T12:40:44.452Z,18.80
2018-05-25T12:43:11.620Z,18.80
2018-05-25T12:45:38.864Z,18.80
2018-05-25T12:48:06.078Z,18.80
2018-05-25T12:50:34.056Z,18.80
2018-05-25T12:53:01.341Z,18.80
2018-05-25T12:55:28.543Z,18.80
2018-05-25T12:57:56.484Z,18.80
2018-05-25T13:00:23.701Z,18.80
2018-05-25T13:02:50.863Z,18.80
2018-05-25T13:05:18.040Z,18.80
2018-05-25T13:07:45.209Z,18.70
2018-05-25T13:10:12.424Z,18.70
2018-05-25T13:12:39.604Z,18.70
2018-05-25T13:15:06.810Z,18.70
2018-05-25T13:17:33.974Z,18.70
2018-05-25T13:20:01.145Z,18.80
2018-05-25T13:22:28.340Z,18.80
2018-05-25T13:24:56.285Z,18.80
2018-05-25T13:27:25.036Z,18.80
2018-05-25T13:29:52.205Z,18.80
2018-05-25T13:32:19.403Z,18.80
2018-05-25T13:34:47.336Z,18.80
2018-05-25T13:37:14.540Z,18.80
2018-05-25T13:39:41.712Z,18.80
2018-05-25T13:42:08.913Z,18.80
2018-05-25T13:44:36.858Z,18.80
2018-05-25T13:47:04.065Z,18.70
2018-05-25T13:49:31.235Z,18.70
2018-05-25T13:51:58.403Z,18.70
2018-05-25T13:54:25.612Z,18.70
2018-05-25T13:56:52.781Z,18.70
2018-05-25T13:59:19.988Z,18.70
2018-05-25T14:01:47.193Z,18.70
2018-05-25T14:04:14.365Z,18.70
2018-05-25T14:06:41.564Z,18.70
2018-05-25T14:09:09.496Z,18.70
2018-05-25T14:11:36.693Z,18.70
2018-05-25T14:14:03.901Z,18.70
2018-05-25T14:16:31.067Z,18.70
2018-05-25T14:18:58.235Z,18.70
2018-05-25T14:21:26.168Z,18.70
2018-05-25T14:23:53.332Z,18.70
2018-05-25T14:26:20.496Z,18.70
2018-05-25T14:28:47.664Z,18.70
2018-05-25T14:31:15.592Z,18.70
2018-05-25T14:33:42.765Z,18.70
2018-05-25T14:36:10.709Z,18.70
2018-05-25T14:38:37.877Z,18.70
2018-05-25T14:41:05.041Z,18.70
2018-05-25T14:43:32.211Z,18.70
2018-05-25T14:46:00.144Z,18.70
2018-05-25T14:48:27.311Z,18.70
2018-05-25T14:50:54.480Z,18.70
2018-05-25T14:53:22.418Z,18.70
2018-05-25T14:55:49.588Z,18.70
2018-05-25T14:58:17.521Z,18.70
2018-05-25T15:00:44.689Z,18.70
2018-05-25T15:03:11.856Z,18.60
2018-05-25T15:05:39.029Z,18.70
2018-05-25T15:08:06.205Z,18.60
2018-05-25T15:10:33.371Z,18.60
2018-05-25T15:13:00.576Z,18.60
2018-05-25T15:15:28.509Z,18.60
2018-05-25T15:17:55.676Z,18.60
2018-05-25T15:20:22.835Z,18.60
2018-05-25T15:22:50.010Z,18.60
2018-05-25T15:25:17.950Z,18.60
2018-05-25T15:27:45.119Z,18.60
2018-05-25T15:30:13.068Z,18.70
2018-05-25T15:32:41.139Z,18.70
2018-05-25T15:35:09.000Z,18.60
2018-05-25T15:37:36.232Z,18.60
2018-05-25T15:40:03.401Z,18.60
2018-05-25T15:42:30.620Z,18.60
2018-05-25T15:44:57.788Z,18.60
2018-05-25T15:47:24.955Z,18.60
2018-05-25T15:49:52.117Z,18.60
2018-05-25T15:52:19.284Z,18.60
2018-05-25T15:54:47.222Z,18.60
2018-05-25T15:57:14.392Z,18.60
2018-05-25T15:59:41.563Z,18.60
2018-05-25T16:02:09.532Z,18.60
2018-05-25T16:04:37.464Z,18.70
2018-05-25T16:07:04.633Z,18.70
2018-05-25T16:09:31.805Z,18.60
2018-05-25T16:11:59.740Z,18.60
2018-05-25T16:14:26.960Z,18.60
2018-05-25T16:16:54.128Z,18.60
2018-05-25T16:19:21.296Z,18.60
2018-05-25T16:21:48.459Z,18.60
2018-05-25T16:24:15.672Z,18.60
2018-05-25T16:26:42.836Z,18.60
2018-05-25T16:29:10.008Z,18.60
2018-05-25T16:31:37.173Z,18.60
2018-05-25T16:34:04.356Z,18.60
2018-05-25T16:36:31.527Z,18.60
2018-05-25T16:38:58.694Z,18.60
2018-05-25T16:41:25.860Z,18.60
2018-05-25T16:43:53.024Z,18.60
2018-05-25T16:46:20.191Z,18.60
2018-05-25T16:48:48.173Z,18.60
2018-05-25T16:51:16.108Z,18.60
2018-05-25T16:53:43.276Z,18.60
2018-05-25T16:56:10.490Z,18.60
2018-05-25T16:58:37.656Z,18.60
2018-05-25T17:01:04.821Z,18.60
2018-05-25T17:03:31.996Z,18.60
2018-05-25T17:05:59.991Z,18.60
2018-05-25T17:08:27.168Z,18.60
2018-05-25T17:10:54.331Z,18.60
2018-05-25T17:13:21.500Z,18.60
2018-05-25T17:15:48.668Z,18.60
2018-05-25T17:18:16.610Z,18.60
2018-05-25T17:20:43.820Z,18.60
2018-05-25T17:23:10.996Z,18.60
2018-05-25T17:25:38.248Z,18.60
2018-05-25T17:28:05.501Z,18.60
2018-05-25T17:30:32.768Z,18.60
2018-05-25T17:32:59.940Z,18.60
2018-05-25T17:35:27.106Z,18.60
2018-05-25T17:37:55.040Z,18.60
2018-05-25T17:40:22.212Z,18.60
2018-05-25T17:42:49.424Z,18.60
2018-05-25T17:45:16.591Z,18.60
2018-05-25T17:47:43.807Z,18.60
2018-05-25T17:50:11.120Z,18.60
2018-05-25T17:52:38.337Z,18.60
2018-05-25T17:55:05.512Z,18.60
2018-05-25T17:57:32.747Z,18.60
2018-05-25T17:59:59.923Z,18.60
2018-05-25T18:02:27.092Z,18.60
2018-05-25T18:04:54.304Z,18.60
2018-05-25T18:07:21.471Z,18.60
2018-05-25T18:09:48.682Z,18.60
2018-05-25T18:12:15.853Z,18.60
2018-05-25T18:14:43.052Z,18.60
2018-05-25T18:17:10.219Z,18.60
2018-05-25T18:19:38.226Z,18.60
2018-05-25T18:22:05.436Z,18.50
2018-05-25T18:24:33.379Z,18.60
2018-05-25T18:27:00.609Z,18.60
2018-05-25T18:29:27.813Z,18.60
2018-05-25T18:31:55.750Z,18.60
2018-05-25T18:34:22.917Z,18.60
2018-05-25T18:36:50.164Z,18.60
2018-05-25T18:39:17.331Z,18.60
2018-05-25T18:41:45.264Z,18.60
2018-05-25T18:44:12.506Z,18.60
2018-05-25T18:46:39.680Z,18.60
2018-05-25T18:49:06.853Z,18.60
2018-05-25T18:51:34.788Z,18.50
2018-05-25T18:54:07.928Z,18.60
2018-05-25T18:56:35.864Z,18.60
2018-05-25T18:59:03.028Z,18.60
2018-05-25T19:01:30.205Z,18.70
2018-05-25T19:03:58.147Z,18.90
2018-05-25T19:06:25.316Z,18.90
2018-05-25T19:08:53.368Z,19.20
2018-05-25T19:11:20.536Z,19.20
2018-05-25T19:13:48.559Z,19.40
2018-05-25T19:16:15.728Z,19.30
2018-05-25T19:18:42.901Z,19.40
2018-05-25T19:21:10.068Z,19.40
2018-05-25T19:23:38.088Z,19.40
2018-05-25T19:26:05.767Z,19.40
2018-05-25T19:28:33.531Z,19.40
2018-05-25T19:31:01.146Z,19.40
2018-05-25T19:33:29.391Z,19.40
2018-05-25T19:35:56.884Z,19.30
2018-05-25T19:38:24.077Z,19.40
2018-05-25T19:40:51.364Z,19.30
2018-05-25T19:43:19.333Z,19.30
2018-05-25T19:45:46.769Z,19.30
2018-05-25T19:48:14.587Z,19.30
2018-05-25T19:50:42.116Z,19.30
2018-05-25T19:53:09.427Z,19.20
2018-05-25T19:55:37.731Z,19.20
2018-05-25T19:58:05.715Z,19.20
2018-05-25T20:00:34.191Z,19.20
2018-05-25T20:03:02.533Z,19.20
2018-05-25T20:05:30.014Z,19.20
2018-05-25T20:07:57.562Z,19.20
2018-05-25T20:10:25.119Z,19.20
2018-05-25T20:12:52.691Z,19.20
2018-05-25T20:15:20.052Z,19.20
2018-05-25T20:17:47.600Z,19.20
2018-05-25T20:20:14.958Z,19.20
2018-05-25T20:22:42.255Z,19.20
2018-05-25T20:25:10.596Z,19.10
2018-05-25T20:27:37.859Z,19.10
2018-05-25T20:30:05.959Z,19.10
2018-05-25T20:32:33.353Z,19.10
2018-05-25T20:35:00.849Z,19.10
2018-05-25T20:37:28.193Z,19.10
2018-05-25T20:39:55.580Z,19.00
2018-05-25T20:42:22.749Z,19.00
2018-05-25T20:44:50.740Z,19.00
2018-05-25T20:47:17.917Z,19.00
2018-05-25T20:49:45.085Z,19.00
2018-05-25T20:52:13.019Z,19.00
2018-05-25T20:54:40.297Z,19.00
2018-05-25T20:57:07.468Z,19.00
2018-05-25T20:59:34.732Z,19.00
2018-05-25T21:02:01.946Z,19.00
2018-05-25T21:04:29.120Z,19.00
2018-05-25T21:06:56.295Z,19.00
2018-05-25T21:09:23.468Z,18.90
2018-05-25T21:11:51.412Z,18.90
2018-05-25T21:14:18.584Z,18.90
2018-05-25T21:16:46.573Z,18.90
2018-05-25T21:19:13.956Z,18.90
2018-05-25T21:21:41.125Z,18.90
2018-05-25T21:24:09.061Z,18.90
2018-05-25T21:26:36.234Z,18.90
2018-05-25T21:29:04.405Z,18.90
2018-05-25T21:31:31.569Z,18.90
2018-05-25T21:33:58.743Z,18.90
2018-05-25T21:36:25.912Z,18.80
2018-05-25T21:38:53.846Z,18.80
2018-05-25T21:41:21.016Z,18.80
2018-05-25T21:43:48.193Z,18.80
2018-05-25T21:46:16.133Z,18.80
2018-05-25T21:48:43.301Z,18.80
2018-05-25T21:51:11.473Z,18.80
2018-05-25T21:53:39.408Z,18.80
2018-05-25T21:56:06.572Z,18.80
2018-05-25T21:58:33.737Z,18.80
2018-05-25T22:01:00.944Z,18.80
2018-05-25T22:03:28.112Z,18.80
2018-05-25T22:05:55.316Z,18.80
2018-05-25T22:08:23.426Z,18.80
2018-05-25T22:10:50.596Z,18.70
2018-05-25T22:13:17.832Z,18.80
2018-05-25T22:15:45.005Z,18.80
2018-05-25T22:18:12.184Z,18.80
2018-05-25T22:20:40.206Z,18.70
2018-05-25T22:23:07.384Z,18.70
2018-05-25T22:25:34.553Z,18.70
2018-05-25T22:28:01.728Z,18.70
2018-05-25T22:30:29.671Z,18.70
2018-05-25T22:32:56.844Z,18.70
2018-05-25T22:35:24.787Z,18.70
2018-05-25T22:37:51.957Z,18.70
2018-05-25T22:40:19.902Z,18.70
2018-05-25T22:42:52.925Z,18.70
2018-05-25T22:45:26.746Z,18.70
2018-05-25T22:47:59.880Z,18.70
2018-05-25T22:50:33.257Z,18.70
2018-05-25T22:53:05.848Z,18.70
2018-05-25T22:55:33.013Z,18.70
2018-05-25T22:58:00.294Z,18.60
2018-05-25T23:00:28.227Z,18.60
2018-05-25T23:02:55.441Z,18.60
2018-05-25T23:05:22.610Z,18.60
2018-05-25T23:07:49.869Z,18.60
2018-05-25T23:10:17.036Z,18.60
2018-05-25T23:12:44.205Z,18.60
2018-05-25T23:15:11.375Z,18.60
2018-05-25T23:17:39.313Z,18.60
2018-05-25T23:20:06.477Z,18.60
2018-05-25T23:22:33.639Z,18.60
2018-05-25T23:25:00.814Z,18.60
2018-05-25T23:27:27.987Z,18.60
2018-05-25T23:29:55.158Z,18.60
2018-05-25T23:32:22.332Z,18.60
2018-05-25T23:34:49.500Z,18.60
2018-05-25T23:37:17.442Z,18.60
2018-05-25T23:39:44.612Z,18.60
2018-05-25T23:42:11.824Z,18.60
2018-05-25T23:44:39.001Z,18.60
2018-05-25T23:47:06.168Z,18.50
2018-05-25T23:49:33.340Z,18.50
2018-05-25T23:52:01.357Z,18.50
2018-05-25T23:54:28.520Z,18.50
2018-05-25T23:56:55.694Z,18.50
2018-05-25T23:59:22.868Z,18.50
